sensor_id;sensor_type;location;lat;lon;timestamp;temperature;humidity
4090;DHT22;2059;48.538;12.146;2022-08-05T00:00:08;25.60;79.00
4090;DHT22;2059;48.538;12.146;2022-08-05T00:05:10;25.60;79.20
4090;DHT22;2059;48.538;12.146;2022-08-05T00:10:13;25.60;79.60
4090;DHT22;2059;48.538;12.146;2022-08-05T00:15:15;25.40;80.30
4090;DHT22;2059;48.538;12.146;2022-08-05T00:20:17;25.40;80.60
4090;DHT22;2059;48.538;12.146;2022-08-05T00:25:20;25.40;81.00
4090;DHT22;2059;48.538;12.146;2022-08-05T00:30:22;25.20;82.60
4090;DHT22;2059;48.538;12.146;2022-08-05T00:35:24;25.20;83.30
4090;DHT22;2059;48.538;12.146;2022-08-05T00:40:27;25.20;83.30
4090;DHT22;2059;48.538;12.146;2022-08-05T00:45:29;25.10;84.10
4090;DHT22;2059;48.538;12.146;2022-08-05T00:50:31;25.10;84.40
4090;DHT22;2059;48.538;12.146;2022-08-05T00:55:34;25.00;85.00
4090;DHT22;2059;48.538;12.146;2022-08-05T01:00:36;24.90;84.40
4090;DHT22;2059;48.538;12.146;2022-08-05T01:05:38;24.90;86.00
4090;DHT22;2059;48.538;12.146;2022-08-05T01:10:46;24.70;86.10
4090;DHT22;2059;48.538;12.146;2022-08-05T01:15:55;24.80;86.10
4090;DHT22;2059;48.538;12.146;2022-08-05T01:21:09;24.60;87.10
4090;DHT22;2059;48.538;12.146;2022-08-05T01:26:21;24.60;87.70
4090;DHT22;2059;48.538;12.146;2022-08-05T01:31:36;24.50;89.10
4090;DHT22;2059;48.538;12.146;2022-08-05T01:36:43;24.50;89.50
4090;DHT22;2059;48.538;12.146;2022-08-05T01:41:48;24.40;90.00
4090;DHT22;2059;48.538;12.146;2022-08-05T01:46:52;24.30;89.80
4090;DHT22;2059;48.538;12.146;2022-08-05T01:51:57;24.30;90.00
4090;DHT22;2059;48.538;12.146;2022-08-05T01:57:02;24.30;89.10
4090;DHT22;2059;48.538;12.146;2022-08-05T02:02:08;24.20;88.60
4090;DHT22;2059;48.538;12.146;2022-08-05T02:07:11;24.20;89.50
4090;DHT22;2059;48.538;12.146;2022-08-05T02:12:17;24.10;89.50
4090;DHT22;2059;48.538;12.146;2022-08-05T02:17:30;24.00;89.60
4090;DHT22;2059;48.538;12.146;2022-08-05T02:22:38;24.00;90.00
4090;DHT22;2059;48.538;12.146;2022-08-05T02:27:40;23.90;90.70
4090;DHT22;2059;48.538;12.146;2022-08-05T02:32:49;23.80;91.00
4090;DHT22;2059;48.538;12.146;2022-08-05T02:37:53;23.70;91.50
4090;DHT22;2059;48.538;12.146;2022-08-05T02:42:56;23.70;91.50
4090;DHT22;2059;48.538;12.146;2022-08-05T02:48:00;23.70;91.90
4090;DHT22;2059;48.538;12.146;2022-08-05T02:53:04;23.60;91.90
4090;DHT22;2059;48.538;12.146;2022-08-05T02:58:06;23.60;92.70
4090;DHT22;2059;48.538;12.146;2022-08-05T03:03:10;23.50;92.80
4090;DHT22;2059;48.538;12.146;2022-08-05T03:08:14;23.50;92.80
4090;DHT22;2059;48.538;12.146;2022-08-05T03:13:17;23.50;92.90
4090;DHT22;2059;48.538;12.146;2022-08-05T03:18:20;23.40;93.50
4090;DHT22;2059;48.538;12.146;2022-08-05T03:23:22;23.40;93.70
4090;DHT22;2059;48.538;12.146;2022-08-05T03:28:24;23.40;94.10
4090;DHT22;2059;48.538;12.146;2022-08-05T03:33:28;23.30;94.60
4090;DHT22;2059;48.538;12.146;2022-08-05T03:38:30;23.30;94.80
4090;DHT22;2059;48.538;12.146;2022-08-05T03:43:32;23.20;95.30
4090;DHT22;2059;48.538;12.146;2022-08-05T03:48:35;23.10;95.00
4090;DHT22;2059;48.538;12.146;2022-08-05T03:53:40;23.20;94.60
4090;DHT22;2059;48.538;12.146;2022-08-05T03:58:46;23.20;94.40
4090;DHT22;2059;48.538;12.146;2022-08-05T04:03:50;23.10;95.00
4090;DHT22;2059;48.538;12.146;2022-08-05T04:08:53;23.00;95.20
4090;DHT22;2059;48.538;12.146;2022-08-05T04:13:56;23.00;95.00
4090;DHT22;2059;48.538;12.146;2022-08-05T04:18:59;23.00;95.60
4090;DHT22;2059;48.538;12.146;2022-08-05T04:24:01;22.90;96.00
4090;DHT22;2059;48.538;12.146;2022-08-05T04:29:03;23.00;95.60
4090;DHT22;2059;48.538;12.146;2022-08-05T04:34:07;22.90;96.10
4090;DHT22;2059;48.538;12.146;2022-08-05T04:39:08;23.00;95.90
4090;DHT22;2059;48.538;12.146;2022-08-05T04:44:10;22.90;96.10
4090;DHT22;2059;48.538;12.146;2022-08-05T04:49:13;23.00;96.20
4090;DHT22;2059;48.538;12.146;2022-08-05T04:54:15;23.00;96.60
4090;DHT22;2059;48.538;12.146;2022-08-05T04:59:19;23.10;96.60
4090;DHT22;2059;48.538;12.146;2022-08-05T05:04:23;23.10;96.30
4090;DHT22;2059;48.538;12.146;2022-08-05T05:09:24;23.20;96.20
4090;DHT22;2059;48.538;12.146;2022-08-05T05:14:26;23.20;96.20
4090;DHT22;2059;48.538;12.146;2022-08-05T05:19:29;23.30;96.50
4090;DHT22;2059;48.538;12.146;2022-08-05T05:24:31;23.30;96.50
4090;DHT22;2059;48.538;12.146;2022-08-05T05:29:33;23.30;96.50
4090;DHT22;2059;48.538;12.146;2022-08-05T05:34:36;23.40;96.70
4090;DHT22;2059;48.538;12.146;2022-08-05T05:39:38;23.20;97.50
4090;DHT22;2059;48.538;12.146;2022-08-05T05:44:39;23.30;97.50
4090;DHT22;2059;48.538;12.146;2022-08-05T05:49:42;23.50;97.50
4090;DHT22;2059;48.538;12.146;2022-08-05T05:54:44;23.50;97.90
4090;DHT22;2059;48.538;12.146;2022-08-05T05:59:46;23.70;97.70
4090;DHT22;2059;48.538;12.146;2022-08-05T06:04:49;23.90;97.50
4090;DHT22;2059;48.538;12.146;2022-08-05T06:09:51;24.00;97.50
4090;DHT22;2059;48.538;12.146;2022-08-05T06:14:53;24.10;97.80
4090;DHT22;2059;48.538;12.146;2022-08-05T06:19:56;24.30;97.40
4090;DHT22;2059;48.538;12.146;2022-08-05T06:24:58;24.50;97.50
4090;DHT22;2059;48.538;12.146;2022-08-05T06:30:00;24.70;97.20
4090;DHT22;2059;48.538;12.146;2022-08-05T06:35:03;25.10;97.10
4090;DHT22;2059;48.538;12.146;2022-08-05T06:40:06;25.20;96.80
4090;DHT22;2059;48.538;12.146;2022-08-05T06:45:08;25.60;96.20
4090;DHT22;2059;48.538;12.146;2022-08-05T06:50:11;25.90;96.10
4090;DHT22;2059;48.538;12.146;2022-08-05T06:55:13;26.10;95.50
4090;DHT22;2059;48.538;12.146;2022-08-05T07:00:15;26.50;94.90
4090;DHT22;2059;48.538;12.146;2022-08-05T07:05:19;26.40;94.30
4090;DHT22;2059;48.538;12.146;2022-08-05T07:10:21;26.60;94.10
4090;DHT22;2059;48.538;12.146;2022-08-05T07:15:24;27.00;93.50
4090;DHT22;2059;48.538;12.146;2022-08-05T07:20:45;27.10;92.90
4090;DHT22;2059;48.538;12.146;2022-08-05T07:25:47;27.50;92.50
4090;DHT22;2059;48.538;12.146;2022-08-05T07:30:49;27.80;92.10
4090;DHT22;2059;48.538;12.146;2022-08-05T07:35:52;27.90;91.70
4090;DHT22;2059;48.538;12.146;2022-08-05T07:40:53;27.80;91.40
4090;DHT22;2059;48.538;12.146;2022-08-05T07:45:55;28.00;91.30
4090;DHT22;2059;48.538;12.146;2022-08-05T07:50:58;28.30;90.70
4090;DHT22;2059;48.538;12.146;2022-08-05T07:56:00;28.50;90.60
4090;DHT22;2059;48.538;12.146;2022-08-05T08:01:02;28.80;90.30
4090;DHT22;2059;48.538;12.146;2022-08-05T08:06:06;29.10;89.80
4090;DHT22;2059;48.538;12.146;2022-08-05T08:11:08;29.00;88.80
4090;DHT22;2059;48.538;12.146;2022-08-05T08:16:10;29.30;88.90
4090;DHT22;2059;48.538;12.146;2022-08-05T08:21:13;29.50;86.20
4090;DHT22;2059;48.538;12.146;2022-08-05T08:26:15;29.70;84.30
4090;DHT22;2059;48.538;12.146;2022-08-05T08:31:16;29.40;80.70
4090;DHT22;2059;48.538;12.146;2022-08-05T08:36:20;29.70;80.50
4090;DHT22;2059;48.538;12.146;2022-08-05T08:41:31;30.00;79.00
4090;DHT22;2059;48.538;12.146;2022-08-05T08:46:57;30.30;79.60
4090;DHT22;2059;48.538;12.146;2022-08-05T08:52:07;30.90;77.10
4090;DHT22;2059;48.538;12.146;2022-08-05T08:57:12;30.80;74.90
4090;DHT22;2059;48.538;12.146;2022-08-05T09:02:18;31.10;74.10
4090;DHT22;2059;48.538;12.146;2022-08-05T09:07:22;31.30;73.80
4090;DHT22;2059;48.538;12.146;2022-08-05T09:12:24;31.40;73.90
4090;DHT22;2059;48.538;12.146;2022-08-05T09:17:26;31.60;73.10
4090;DHT22;2059;48.538;12.146;2022-08-05T09:28:08;32.10;71.50
4090;DHT22;2059;48.538;12.146;2022-08-05T09:33:10;32.10;70.80
4090;DHT22;2059;48.538;12.146;2022-08-05T09:38:13;32.30;70.20
4090;DHT22;2059;48.538;12.146;2022-08-05T09:43:27;32.70;69.40
4090;DHT22;2059;48.538;12.146;2022-08-05T09:48:31;32.90;67.70
4090;DHT22;2059;48.538;12.146;2022-08-05T09:53:46;33.10;66.30
4090;DHT22;2059;48.538;12.146;2022-08-05T09:58:58;33.20;64.50
4090;DHT22;2059;48.538;12.146;2022-08-05T10:04:02;33.20;63.00
4090;DHT22;2059;48.538;12.146;2022-08-05T10:09:13;33.50;63.30
4090;DHT22;2059;48.538;12.146;2022-08-05T10:14:22;33.60;62.70
4090;DHT22;2059;48.538;12.146;2022-08-05T10:19:25;33.90;61.50
4090;DHT22;2059;48.538;12.146;2022-08-05T10:24:31;34.00;61.10
4090;DHT22;2059;48.538;12.146;2022-08-05T10:29:34;34.00;60.40
4090;DHT22;2059;48.538;12.146;2022-08-05T10:34:37;34.20;59.60
4090;DHT22;2059;48.538;12.146;2022-08-05T10:39:43;34.30;59.20
4090;DHT22;2059;48.538;12.146;2022-08-05T10:44:46;34.30;58.70
4090;DHT22;2059;48.538;12.146;2022-08-05T10:50:04;34.10;58.00
4090;DHT22;2059;48.538;12.146;2022-08-05T10:55:11;33.90;57.80
4090;DHT22;2059;48.538;12.146;2022-08-05T11:00:15;34.00;58.40
4090;DHT22;2059;48.538;12.146;2022-08-05T11:05:18;34.30;57.90
4090;DHT22;2059;48.538;12.146;2022-08-05T11:10:23;34.00;57.80
4090;DHT22;2059;48.538;12.146;2022-08-05T11:15:26;34.20;58.10
4090;DHT22;2059;48.538;12.146;2022-08-05T11:20:36;34.50;58.30
4090;DHT22;2059;48.538;12.146;2022-08-05T11:25:40;34.70;58.40
4090;DHT22;2059;48.538;12.146;2022-08-05T11:31:21;35.00;58.20
4090;DHT22;2059;48.538;12.146;2022-08-05T11:36:48;35.00;57.60
4090;DHT22;2059;48.538;12.146;2022-08-05T11:41:52;35.10;57.40
4090;DHT22;2059;48.538;12.146;2022-08-05T11:46:53;35.10;56.60
4090;DHT22;2059;48.538;12.146;2022-08-05T11:51:55;35.30;56.90
4090;DHT22;2059;48.538;12.146;2022-08-05T11:56:58;35.30;56.20
4090;DHT22;2059;48.538;12.146;2022-08-05T12:02:03;35.40;55.60
4090;DHT22;2059;48.538;12.146;2022-08-05T12:07:06;35.70;55.40
4090;DHT22;2059;48.538;12.146;2022-08-05T12:12:10;35.70;55.70
4090;DHT22;2059;48.538;12.146;2022-08-05T12:17:13;35.60;53.80
4090;DHT22;2059;48.538;12.146;2022-08-05T12:22:17;35.30;54.70
4090;DHT22;2059;48.538;12.146;2022-08-05T12:27:21;35.30;54.80
4090;DHT22;2059;48.538;12.146;2022-08-05T12:32:24;35.70;54.50
4090;DHT22;2059;48.538;12.146;2022-08-05T12:37:26;35.50;53.60
4090;DHT22;2059;48.538;12.146;2022-08-05T12:42:30;35.30;53.60
4090;DHT22;2059;48.538;12.146;2022-08-05T12:47:32;35.50;54.40
4090;DHT22;2059;48.538;12.146;2022-08-05T12:52:34;35.30;53.90
4090;DHT22;2059;48.538;12.146;2022-08-05T12:57:37;35.00;53.70
4090;DHT22;2059;48.538;12.146;2022-08-05T13:02:39;35.30;55.50
4090;DHT22;2059;48.538;12.146;2022-08-05T13:07:42;35.30;55.30
4090;DHT22;2059;48.538;12.146;2022-08-05T13:12:45;35.30;54.40
4090;DHT22;2059;48.538;12.146;2022-08-05T13:17:52;34.90;54.60
4090;DHT22;2059;48.538;12.146;2022-08-05T13:22:55;35.00;55.40
4090;DHT22;2059;48.538;12.146;2022-08-05T13:27:58;35.10;54.50
4090;DHT22;2059;48.538;12.146;2022-08-05T13:33:00;34.70;53.90
4090;DHT22;2059;48.538;12.146;2022-08-05T13:38:05;35.10;53.70
4090;DHT22;2059;48.538;12.146;2022-08-05T13:43:08;35.00;53.90
4090;DHT22;2059;48.538;12.146;2022-08-05T13:48:10;34.80;54.00
4090;DHT22;2059;48.538;12.146;2022-08-05T13:53:12;35.00;53.40
4090;DHT22;2059;48.538;12.146;2022-08-05T13:58:15;34.70;52.70
4090;DHT22;2059;48.538;12.146;2022-08-05T14:03:17;35.00;53.40
4090;DHT22;2059;48.538;12.146;2022-08-05T14:08:19;35.30;52.60
4090;DHT22;2059;48.538;12.146;2022-08-05T14:13:25;35.50;54.00
4090;DHT22;2059;48.538;12.146;2022-08-05T14:18:27;35.20;53.50
4090;DHT22;2059;48.538;12.146;2022-08-05T14:23:29;34.50;52.20
4090;DHT22;2059;48.538;12.146;2022-08-05T14:28:32;34.30;53.30
4090;DHT22;2059;48.538;12.146;2022-08-05T14:33:34;34.50;54.60
4090;DHT22;2059;48.538;12.146;2022-08-05T14:38:36;34.40;53.80
4090;DHT22;2059;48.538;12.146;2022-08-05T14:43:39;34.40;53.80
4090;DHT22;2059;48.538;12.146;2022-08-05T14:48:41;34.40;55.00
4090;DHT22;2059;48.538;12.146;2022-08-05T14:53:43;34.20;55.20
4090;DHT22;2059;48.538;12.146;2022-08-05T14:58:46;34.30;56.00
4090;DHT22;2059;48.538;12.146;2022-08-05T15:03:56;34.50;57.20
4090;DHT22;2059;48.538;12.146;2022-08-05T15:09:00;34.80;55.50
4090;DHT22;2059;48.538;12.146;2022-08-05T15:14:03;34.90;54.90
4090;DHT22;2059;48.538;12.146;2022-08-05T15:19:05;34.70;53.30
4090;DHT22;2059;48.538;12.146;2022-08-05T15:24:07;35.00;54.90
4090;DHT22;2059;48.538;12.146;2022-08-05T15:29:10;35.10;53.80
4090;DHT22;2059;48.538;12.146;2022-08-05T15:34:12;35.10;53.80
4090;DHT22;2059;48.538;12.146;2022-08-05T15:39:16;35.30;53.00
4090;DHT22;2059;48.538;12.146;2022-08-05T15:44:23;35.30;54.10
4090;DHT22;2059;48.538;12.146;2022-08-05T15:49:29;35.20;54.10
4090;DHT22;2059;48.538;12.146;2022-08-05T15:54:47;35.20;54.10
4090;DHT22;2059;48.538;12.146;2022-08-05T15:59:50;35.20;54.10
4090;DHT22;2059;48.538;12.146;2022-08-05T16:04:52;35.10;54.10
4090;DHT22;2059;48.538;12.146;2022-08-05T16:09:59;34.90;53.00
4090;DHT22;2059;48.538;12.146;2022-08-05T16:15:02;35.20;56.50
4090;DHT22;2059;48.538;12.146;2022-08-05T16:20:07;36.70;53.60
4090;DHT22;2059;48.538;12.146;2022-08-05T16:25:09;38.90;49.90
4090;DHT22;2059;48.538;12.146;2022-08-05T16:30:14;40.50;46.20
4090;DHT22;2059;48.538;12.146;2022-08-05T16:35:18;39.00;47.30
4090;DHT22;2059;48.538;12.146;2022-08-05T16:40:19;37.20;50.00
4090;DHT22;2059;48.538;12.146;2022-08-05T16:45:23;36.10;50.70
4090;DHT22;2059;48.538;12.146;2022-08-05T16:50:25;37.50;50.40
4090;DHT22;2059;48.538;12.146;2022-08-05T16:55:26;37.20;48.00
4090;DHT22;2059;48.538;12.146;2022-08-05T17:00:30;36.20;47.90
4090;DHT22;2059;48.538;12.146;2022-08-05T17:05:32;35.50;50.30
4090;DHT22;2059;48.538;12.146;2022-08-05T17:10:34;34.70;50.00
4090;DHT22;2059;48.538;12.146;2022-08-05T17:15:38;34.20;51.50
4090;DHT22;2059;48.538;12.146;2022-08-05T17:20:41;33.70;52.80
4090;DHT22;2059;48.538;12.146;2022-08-05T17:25:43;33.40;53.30
4090;DHT22;2059;48.538;12.146;2022-08-05T17:30:47;33.10;54.00
4090;DHT22;2059;48.538;12.146;2022-08-05T17:35:49;32.90;54.80
4090;DHT22;2059;48.538;12.146;2022-08-05T17:40:51;32.70;55.70
4090;DHT22;2059;48.538;12.146;2022-08-05T17:45:54;32.50;56.30
4090;DHT22;2059;48.538;12.146;2022-08-05T17:50:56;32.40;56.70
4090;DHT22;2059;48.538;12.146;2022-08-05T17:55:58;32.40;57.00
4090;DHT22;2059;48.538;12.146;2022-08-05T18:01:02;32.20;56.90
4090;DHT22;2059;48.538;12.146;2022-08-05T18:06:05;32.10;57.40
4090;DHT22;2059;48.538;12.146;2022-08-05T18:11:07;31.90;58.00
4090;DHT22;2059;48.538;12.146;2022-08-05T18:16:11;31.80;58.30
4090;DHT22;2059;48.538;12.146;2022-08-05T18:21:13;31.70;58.10
4090;DHT22;2059;48.538;12.146;2022-08-05T18:26:15;31.60;58.30
4090;DHT22;2059;48.538;12.146;2022-08-05T18:31:19;31.50;59.10
4090;DHT22;2059;48.538;12.146;2022-08-05T18:36:21;31.50;59.50
4090;DHT22;2059;48.538;12.146;2022-08-05T18:41:23;31.20;60.60
4090;DHT22;2059;48.538;12.146;2022-08-05T18:46:26;31.10;60.90
4090;DHT22;2059;48.538;12.146;2022-08-05T18:51:28;30.90;61.70
4090;DHT22;2059;48.538;12.146;2022-08-05T18:56:47;30.80;61.80
4090;DHT22;2059;48.538;12.146;2022-08-05T19:01:50;30.80;62.10
4090;DHT22;2059;48.538;12.146;2022-08-05T19:06:52;30.70;62.80
4090;DHT22;2059;48.538;12.146;2022-08-05T19:11:54;30.30;64.50
4090;DHT22;2059;48.538;12.146;2022-08-05T19:16:57;30.30;64.80
4090;DHT22;2059;48.538;12.146;2022-08-05T19:21:59;30.40;64.60
4090;DHT22;2059;48.538;12.146;2022-08-05T19:27:01;30.40;64.60
4090;DHT22;2059;48.538;12.146;2022-08-05T19:32:05;30.10;66.30
4090;DHT22;2059;48.538;12.146;2022-08-05T19:37:07;30.10;66.10
4090;DHT22;2059;48.538;12.146;2022-08-05T19:42:10;30.00;66.60
4090;DHT22;2059;48.538;12.146;2022-08-05T19:47:13;29.90;68.00
4090;DHT22;2059;48.538;12.146;2022-08-05T19:52:15;29.70;69.40
4090;DHT22;2059;48.538;12.146;2022-08-05T19:57:17;29.70;69.80
4090;DHT22;2059;48.538;12.146;2022-08-05T20:02:20;29.80;68.90
4090;DHT22;2059;48.538;12.146;2022-08-05T20:07:22;29.80;69.30
4090;DHT22;2059;48.538;12.146;2022-08-05T20:12:24;29.80;69.60
4090;DHT22;2059;48.538;12.146;2022-08-05T20:17:27;29.60;70.50
4090;DHT22;2059;48.538;12.146;2022-08-05T20:22:29;29.70;70.30
4090;DHT22;2059;48.538;12.146;2022-08-05T20:27:30;29.70;70.30
4090;DHT22;2059;48.538;12.146;2022-08-05T20:32:33;29.60;70.20
4090;DHT22;2059;48.538;12.146;2022-08-05T20:37:36;29.50;71.90
4090;DHT22;2059;48.538;12.146;2022-08-05T20:42:37;29.20;76.90
4090;DHT22;2059;48.538;12.146;2022-08-05T20:47:41;28.30;85.80
4090;DHT22;2059;48.538;12.146;2022-08-05T20:52:42;26.60;92.40
4090;DHT22;2059;48.538;12.146;2022-08-05T20:57:45;24.90;97.80
4090;DHT22;2059;48.538;12.146;2022-08-05T21:02:48;23.90;99.90
4090;DHT22;2059;48.538;12.146;2022-08-05T21:07:54;23.80;99.90
4090;DHT22;2059;48.538;12.146;2022-08-05T21:12:56;23.90;99.90
4090;DHT22;2059;48.538;12.146;2022-08-05T21:17:59;23.80;99.90
4090;DHT22;2059;48.538;12.146;2022-08-05T21:23:01;23.60;99.90
4090;DHT22;2059;48.538;12.146;2022-08-05T21:28:03;23.40;99.90
4090;DHT22;2059;48.538;12.146;2022-08-05T21:33:07;23.50;99.90
4090;DHT22;2059;48.538;12.146;2022-08-05T21:38:09;23.60;99.90
4090;DHT22;2059;48.538;12.146;2022-08-05T21:43:11;23.40;99.90
4090;DHT22;2059;48.538;12.146;2022-08-05T21:48:15;23.40;99.90
4090;DHT22;2059;48.538;12.146;2022-08-05T21:53:17;23.40;99.90
4090;DHT22;2059;48.538;12.146;2022-08-05T21:58:19;23.10;99.90
4090;DHT22;2059;48.538;12.146;2022-08-05T22:03:22;23.10;99.90
4090;DHT22;2059;48.538;12.146;2022-08-05T22:08:24;23.10;99.90
4090;DHT22;2059;48.538;12.146;2022-08-05T22:13:26;23.10;99.90
4090;DHT22;2059;48.538;12.146;2022-08-05T22:18:29;23.10;99.90
4090;DHT22;2059;48.538;12.146;2022-08-05T22:23:31;23.00;99.90
4090;DHT22;2059;48.538;12.146;2022-08-05T22:28:50;23.20;99.90
4090;DHT22;2059;48.538;12.146;2022-08-05T22:33:54;23.30;99.90
4090;DHT22;2059;48.538;12.146;2022-08-05T22:38:55;23.30;99.90
4090;DHT22;2059;48.538;12.146;2022-08-05T22:43:57;23.30;99.90
4090;DHT22;2059;48.538;12.146;2022-08-05T22:49:01;23.20;99.90
4090;DHT22;2059;48.538;12.146;2022-08-05T22:54:03;23.20;99.90
4090;DHT22;2059;48.538;12.146;2022-08-05T22:59:05;23.30;99.90
4090;DHT22;2059;48.538;12.146;2022-08-05T23:04:08;23.40;99.90
4090;DHT22;2059;48.538;12.146;2022-08-05T23:09:10;23.20;99.90
4090;DHT22;2059;48.538;12.146;2022-08-05T23:14:12;23.10;99.90
4090;DHT22;2059;48.538;12.146;2022-08-05T23:19:15;23.10;99.90
4090;DHT22;2059;48.538;12.146;2022-08-05T23:24:16;22.80;99.90
4090;DHT22;2059;48.538;12.146;2022-08-05T23:29:18;22.80;99.90
4090;DHT22;2059;48.538;12.146;2022-08-05T23:34:21;22.90;99.90
4090;DHT22;2059;48.538;12.146;2022-08-05T23:39:23;22.70;99.90
4090;DHT22;2059;48.538;12.146;2022-08-05T23:44:25;22.80;99.90
4090;DHT22;2059;48.538;12.146;2022-08-05T23:49:28;22.60;99.90
4090;DHT22;2059;48.538;12.146;2022-08-05T23:54:31;22.70;99.90
4090;DHT22;2059;48.538;12.146;2022-08-05T23:59:34;22.50;99.90
